createdAt,value
2024-02-24T00:01:11.746Z,57.45
2024-02-24T00:03:39.171Z,58.00
2024-02-24T00:06:06.792Z,59.70
2024-02-24T00:08:34.324Z,59.97
2024-02-24T00:11:01.780Z,59.80
2024-02-24T00:13:29.178Z,58.43
2024-02-24T00:15:56.547Z,58.43
2024-02-24T00:18:23.938Z,58.60
2024-02-24T00:20:51.359Z,56.08
2024-02-24T00:23:18.827Z,56.77
2024-02-24T00:25:46.242Z,59.20
2024-02-24T00:28:13.896Z,59.14
2024-02-24T00:30:41.326Z,60.27
2024-02-24T00:33:08.845Z,61.12
2024-02-24T00:35:36.302Z,61.91
2024-02-24T00:38:03.765Z,61.08
2024-02-24T00:40:31.196Z,59.26
2024-02-24T00:42:58.642Z,60.02
2024-02-24T00:45:25.979Z,59.52
2024-02-24T00:47:53.454Z,58.08
2024-02-24T00:50:21.023Z,58.88
2024-02-24T00:52:48.488Z,61.63
2024-02-24T00:55:15.836Z,59.23
2024-02-24T00:57:43.238Z,59.79
2024-02-24T01:00:11.707Z,60.13
2024-02-24T01:02:39.168Z,60.02
2024-02-24T01:05:07.520Z,59.37
2024-02-24T01:07:34.963Z,60.42
2024-02-24T01:10:02.483Z,63.56
2024-02-24T01:12:29.944Z,62.90
2024-02-24T01:14:58.504Z,64.00
2024-02-24T01:17:26.348Z,63.35
2024-02-24T01:19:53.769Z,64.47
2024-02-24T01:22:21.246Z,64.78
2024-02-24T01:24:48.734Z,61.37
2024-02-24T01:27:16.223Z,62.39
2024-02-24T01:29:43.715Z,62.26
2024-02-24T01:32:11.212Z,60.44
2024-02-24T01:34:38.724Z,61.40
2024-02-24T01:37:06.367Z,63.11
2024-02-24T01:39:33.909Z,61.62
2024-02-24T01:42:01.319Z,63.09
2024-02-24T01:44:28.824Z,60.13
2024-02-24T01:46:56.230Z,59.50
2024-02-24T01:49:23.787Z,59.34
2024-02-24T01:51:51.384Z,58.29
2024-02-24T01:54:18.908Z,59.67
2024-02-24T01:56:47.989Z,60.85
2024-02-24T01:59:16.558Z,62.04
2024-02-24T02:01:44.000Z,64.27
2024-02-24T02:04:11.463Z,64.01
2024-02-24T02:06:39.060Z,63.25
2024-02-24T02:09:06.630Z,64.38
2024-02-24T02:11:44.174Z,62.51
2024-02-24T02:14:19.293Z,61.49
2024-02-24T02:16:46.650Z,62.31
2024-02-24T02:19:14.233Z,62.96
2024-02-24T02:21:45.067Z,62.67
2024-02-24T02:24:12.995Z,61.85
2024-02-24T02:26:40.762Z,61.86
2024-02-24T02:29:08.193Z,62.69
2024-02-24T02:31:35.659Z,62.34
2024-02-24T02:34:03.092Z,62.21
2024-02-24T02:36:30.592Z,62.29
2024-02-24T02:38:57.931Z,62.88
2024-02-24T02:41:25.351Z,63.62
2024-02-24T02:43:52.786Z,61.62
2024-02-24T02:46:20.192Z,61.85
2024-02-24T02:48:47.689Z,61.60
2024-02-24T02:51:15.442Z,61.99
2024-02-24T02:53:42.908Z,62.88
2024-02-24T02:56:14.444Z,62.77
2024-02-24T02:58:41.941Z,61.81
2024-02-24T03:01:10.630Z,62.30
2024-02-24T03:03:38.351Z,62.76
2024-02-24T03:06:07.207Z,63.37
2024-02-24T03:08:35.209Z,61.33
2024-02-24T03:11:04.407Z,60.30
2024-02-24T03:13:32.955Z,59.80
2024-02-24T03:16:00.487Z,60.51
2024-02-24T03:18:27.996Z,60.24
2024-02-24T03:20:55.475Z,58.15
2024-02-24T03:23:22.970Z,57.78
2024-02-24T03:25:50.400Z,57.30
2024-02-24T03:28:18.397Z,56.32
2024-02-24T03:30:46.144Z,55.63
2024-02-24T03:33:14.178Z,55.26
2024-02-24T03:35:41.866Z,56.03
2024-02-24T03:38:09.350Z,57.05
2024-02-24T03:40:37.846Z,59.33
2024-02-24T03:43:05.432Z,58.21
2024-02-24T03:45:33.775Z,56.70
2024-02-24T03:48:01.398Z,56.43
2024-02-24T03:50:29.077Z,57.30
2024-02-24T03:52:56.506Z,55.63
2024-02-24T03:55:23.953Z,55.28
2024-02-24T03:57:51.290Z,55.99
2024-02-24T04:00:19.224Z,58.64
2024-02-24T04:02:46.589Z,58.44
2024-02-24T04:05:14.348Z,58.36
2024-02-24T04:07:41.820Z,58.99
2024-02-24T04:10:09.630Z,56.90
2024-02-24T04:12:37.126Z,58.86
2024-02-24T04:15:05.059Z,59.64
2024-02-24T04:17:32.641Z,58.71
2024-02-24T04:20:00.179Z,59.41
2024-02-24T04:22:27.631Z,57.37
2024-02-24T04:24:55.102Z,56.84
2024-02-24T04:27:22.518Z,56.15
2024-02-24T04:29:49.889Z,53.94
2024-02-24T04:32:17.324Z,57.72
2024-02-24T04:34:44.930Z,60.26
2024-02-24T04:37:12.399Z,60.45
2024-02-24T04:39:39.863Z,62.18
2024-02-24T04:42:08.181Z,61.50
2024-02-24T04:44:35.611Z,60.00
2024-02-24T04:47:03.193Z,61.33
2024-02-24T04:49:30.955Z,61.12
2024-02-24T04:51:58.393Z,60.82
2024-02-24T04:54:26.327Z,59.47
2024-02-24T04:56:53.740Z,59.84
2024-02-24T04:59:21.293Z,59.64
2024-02-24T05:01:48.637Z,58.30
2024-02-24T05:04:16.131Z,56.98
2024-02-24T05:06:43.581Z,56.32
2024-02-24T05:09:13.561Z,55.48
2024-02-24T05:11:41.951Z,54.44
2024-02-24T05:14:09.534Z,54.75
2024-02-24T05:16:42.311Z,54.86
2024-02-24T05:19:09.950Z,55.03
2024-02-24T05:21:38.172Z,54.96
2024-02-24T05:24:07.662Z,55.35
2024-02-24T05:26:35.056Z,55.38
2024-02-24T05:29:02.514Z,54.96
2024-02-24T05:31:29.955Z,53.11
2024-02-24T05:33:58.304Z,53.17
2024-02-24T05:36:25.840Z,52.66
2024-02-24T05:38:53.199Z,53.66
2024-02-24T05:41:20.680Z,55.17
2024-02-24T05:43:48.132Z,54.92
2024-02-24T05:46:18.248Z,58.49
2024-02-24T05:48:47.723Z,63.36
2024-02-24T05:51:15.904Z,63.04
2024-02-24T05:53:43.597Z,65.38
2024-02-24T05:56:11.118Z,65.17
2024-02-24T05:58:38.595Z,64.17
2024-02-24T06:01:06.112Z,62.13
2024-02-24T06:03:33.656Z,62.92
2024-02-24T06:06:01.133Z,63.58
2024-02-24T06:08:29.189Z,65.70
2024-02-24T06:10:56.779Z,64.44
2024-02-24T06:13:24.334Z,64.15
2024-02-24T06:15:51.823Z,65.84
2024-02-24T06:18:21.372Z,65.43
2024-02-24T06:20:48.976Z,64.84
2024-02-24T06:23:16.578Z,61.11
2024-02-24T06:25:43.988Z,59.82
2024-02-24T06:28:13.060Z,59.09
2024-02-24T06:30:40.462Z,59.68
2024-02-24T06:33:08.998Z,59.46
2024-02-24T06:35:36.757Z,61.34
2024-02-24T06:38:04.764Z,61.34
2024-02-24T06:40:37.683Z,62.06
2024-02-24T06:43:12.612Z,59.01
2024-02-24T06:45:40.103Z,58.50
2024-02-24T06:48:08.079Z,58.35
2024-02-24T06:50:35.756Z,58.46
2024-02-24T06:53:03.518Z,57.44
2024-02-24T06:55:30.959Z,56.70
2024-02-24T06:57:58.401Z,57.88
2024-02-24T07:00:25.997Z,56.76
2024-02-24T07:02:55.063Z,58.17
2024-02-24T07:05:22.873Z,57.20
2024-02-24T07:07:50.466Z,55.33
2024-02-24T07:10:17.965Z,54.66
2024-02-24T07:12:45.916Z,54.32
2024-02-24T07:15:13.506Z,55.69
2024-02-24T07:17:42.279Z,53.70
2024-02-24T07:20:10.965Z,53.24
2024-02-24T07:22:38.464Z,54.70
2024-02-24T07:25:06.682Z,56.13
2024-02-24T07:27:35.937Z,53.47
2024-02-24T07:30:03.540Z,52.54
2024-02-24T07:32:31.138Z,52.37
2024-02-24T07:35:00.123Z,51.33
2024-02-24T07:37:27.617Z,51.84
2024-02-24T07:39:55.109Z,51.67
2024-02-24T07:42:22.549Z,51.65
2024-02-24T07:44:49.975Z,52.04
2024-02-24T07:47:19.045Z,53.12
2024-02-24T07:49:47.136Z,53.34
2024-02-24T07:52:14.646Z,51.05
2024-02-24T07:54:42.044Z,52.72
2024-02-24T07:57:09.530Z,54.71
2024-02-24T07:59:36.989Z,53.92
2024-02-24T08:02:04.693Z,54.42
2024-02-24T08:04:32.181Z,55.45
2024-02-24T08:06:59.674Z,54.81
2024-02-24T08:09:27.130Z,54.17
2024-02-24T08:11:54.701Z,55.22
2024-02-24T08:14:23.847Z,53.02
2024-02-24T08:16:51.245Z,52.90
2024-02-24T08:19:18.743Z,53.29
2024-02-24T08:21:46.199Z,53.84
2024-02-24T08:24:17.780Z,53.55
2024-02-24T08:26:46.773Z,53.05
2024-02-24T08:29:14.242Z,50.42
2024-02-24T08:31:44.142Z,50.92
2024-02-24T08:34:12.567Z,50.75
2024-02-24T08:36:40.802Z,49.52
2024-02-24T08:39:08.351Z,49.99
2024-02-24T08:41:38.348Z,50.45
2024-02-24T08:44:06.697Z,51.00
2024-02-24T08:46:34.225Z,51.18
2024-02-24T08:49:02.741Z,48.83
2024-02-24T08:51:30.514Z,48.13
2024-02-24T08:53:58.070Z,49.64
2024-02-24T08:56:26.614Z,48.57
2024-02-24T08:58:57.839Z,48.36
2024-02-24T09:01:25.322Z,48.39
2024-02-24T09:03:52.950Z,48.73
2024-02-24T09:06:20.619Z,47.99
2024-02-24T09:08:48.157Z,49.43
2024-02-24T09:11:15.764Z,47.46
2024-02-24T09:13:46.359Z,49.56
2024-02-24T09:16:19.375Z,46.93
2024-02-24T09:18:46.952Z,46.77
2024-02-24T09:21:14.452Z,47.29
2024-02-24T09:23:41.898Z,46.33
2024-02-24T09:26:09.331Z,46.97
2024-02-24T09:28:36.783Z,45.67
2024-02-24T09:31:04.372Z,45.66
2024-02-24T09:33:31.890Z,45.29
2024-02-24T09:36:00.546Z,45.23
2024-02-24T09:38:28.143Z,45.32
2024-02-24T09:40:55.662Z,45.51
2024-02-24T09:43:23.660Z,45.37
2024-02-24T09:45:52.356Z,45.24
2024-02-24T09:48:20.930Z,44.23
2024-02-24T09:50:48.496Z,44.50
2024-02-24T09:53:16.094Z,43.98
2024-02-24T09:55:44.806Z,43.02
2024-02-24T09:58:15.926Z,44.43
2024-02-24T10:00:45.369Z,43.33
2024-02-24T10:03:13.726Z,43.32
2024-02-24T10:05:41.568Z,43.08
2024-02-24T10:08:11.018Z,43.48
2024-02-24T10:10:38.845Z,42.85
2024-02-24T10:13:06.266Z,43.00
2024-02-24T10:15:35.879Z,43.61
2024-02-24T10:18:05.805Z,42.83
2024-02-24T10:20:33.588Z,44.39
2024-02-24T10:23:02.047Z,42.74
2024-02-24T10:25:29.988Z,41.90
2024-02-24T10:27:57.500Z,43.01
2024-02-24T10:30:26.459Z,41.67
2024-02-24T10:32:58.133Z,42.63
2024-02-24T10:35:25.752Z,43.50
2024-02-24T10:38:11.413Z,42.67
2024-02-24T10:40:45.622Z,41.08
2024-02-24T10:43:13.853Z,41.13
2024-02-24T10:45:41.267Z,41.46
2024-02-24T10:48:09.117Z,40.21
2024-02-24T10:50:36.945Z,41.65
2024-02-24T10:53:06.435Z,43.67
2024-02-24T10:55:36.961Z,40.44
2024-02-24T10:58:04.456Z,40.45
2024-02-24T11:00:36.202Z,41.04
2024-02-24T11:03:06.310Z,41.07
2024-02-24T11:05:36.298Z,40.62
2024-02-24T11:08:04.361Z,40.88
2024-02-24T11:10:35.547Z,39.92
2024-02-24T11:13:04.132Z,40.16
2024-02-24T11:15:33.817Z,40.20
2024-02-24T11:18:01.733Z,39.74
2024-02-24T11:20:53.882Z,39.80
2024-02-24T11:23:34.587Z,41.72
2024-02-24T11:26:14.229Z,41.87
2024-02-24T11:28:46.495Z,40.99
2024-02-24T11:31:33.221Z,42.01
2024-02-24T11:34:09.785Z,42.90
2024-02-24T11:36:40.873Z,41.27
2024-02-24T11:39:13.380Z,41.46
2024-02-24T11:41:44.608Z,41.72
2024-02-24T11:44:12.454Z,40.95
2024-02-24T11:46:40.710Z,40.45
2024-02-24T11:49:08.270Z,41.24
2024-02-24T11:51:36.558Z,41.47
2024-02-24T11:54:08.593Z,40.73
2024-02-24T11:56:38.720Z,41.10
2024-02-24T11:59:10.665Z,40.09
2024-02-24T12:01:41.242Z,39.95
2024-02-24T12:04:08.813Z,40.53
2024-02-24T12:06:36.480Z,41.57
2024-02-24T12:09:04.235Z,41.61
2024-02-24T12:11:36.522Z,43.73
2024-02-24T12:14:04.202Z,40.85
2024-02-24T12:16:31.569Z,40.39
2024-02-24T12:19:02.171Z,41.17
2024-02-24T12:21:30.831Z,40.67
2024-02-24T12:23:58.824Z,40.72
2024-02-24T12:26:29.037Z,39.92
2024-02-24T12:28:56.752Z,40.65
2024-02-24T12:31:25.411Z,39.31
2024-02-24T12:33:53.136Z,39.16
2024-02-24T12:36:22.002Z,38.64
2024-02-24T12:38:51.034Z,38.44
2024-02-24T12:41:19.733Z,37.95
2024-02-24T12:43:47.247Z,37.93
2024-02-24T12:46:15.282Z,37.59
2024-02-24T12:48:44.804Z,38.73
2024-02-24T12:51:13.826Z,37.93
2024-02-24T12:53:43.186Z,38.63
2024-02-24T12:56:10.619Z,39.33
2024-02-24T12:58:40.392Z,38.14
2024-02-24T13:01:09.965Z,38.55
2024-02-24T13:03:37.688Z,38.23
2024-02-24T13:06:06.047Z,37.21
2024-02-24T13:08:33.630Z,37.28
2024-02-24T13:11:01.342Z,39.38
2024-02-24T13:13:29.273Z,38.97
2024-02-24T13:15:56.649Z,38.85
2024-02-24T13:18:24.299Z,38.33
2024-02-24T13:20:51.898Z,37.75
2024-02-24T13:23:19.475Z,41.26
2024-02-24T13:25:46.975Z,39.01
2024-02-24T13:28:15.159Z,39.29
2024-02-24T13:30:42.635Z,39.35
2024-02-24T13:33:10.572Z,39.82
2024-02-24T13:35:38.104Z,39.45
2024-02-24T13:38:05.590Z,40.14
2024-02-24T13:40:33.292Z,39.16
2024-02-24T13:43:01.631Z,40.23
2024-02-24T13:45:29.027Z,39.45
2024-02-24T13:47:56.536Z,39.19
2024-02-24T13:50:25.018Z,38.92
2024-02-24T13:52:53.807Z,38.98
2024-02-24T13:55:21.271Z,39.42
2024-02-24T13:57:48.763Z,39.82
2024-02-24T14:00:18.591Z,39.09
2024-02-24T14:02:46.243Z,41.96
2024-02-24T14:05:13.909Z,40.35
2024-02-24T14:07:41.500Z,45.46
2024-02-24T14:10:09.518Z,42.31
2024-02-24T14:12:36.872Z,40.89
2024-02-24T14:15:04.971Z,41.53
2024-02-24T14:17:32.548Z,40.80
2024-02-24T14:20:05.552Z,40.99
2024-02-24T14:22:39.147Z,40.74
2024-02-24T14:25:07.200Z,40.36
2024-02-24T14:27:34.680Z,39.25
2024-02-24T14:30:02.309Z,40.57
2024-02-24T14:32:29.742Z,40.20
2024-02-24T14:34:57.318Z,39.83
2024-02-24T14:37:24.846Z,39.72
2024-02-24T14:39:52.401Z,40.59
2024-02-24T14:42:20.125Z,41.04
2024-02-24T14:44:47.523Z,40.00
2024-02-24T14:47:14.999Z,40.17
2024-02-24T14:49:42.665Z,40.15
2024-02-24T14:52:10.808Z,41.37
2024-02-24T14:54:42.233Z,41.83
2024-02-24T14:57:13.761Z,41.93
2024-02-24T14:59:43.615Z,40.78
2024-02-24T15:02:15.116Z,41.21
2024-02-24T15:04:46.798Z,41.44
2024-02-24T15:07:14.408Z,40.56
2024-02-24T15:09:41.832Z,40.42
2024-02-24T15:12:09.490Z,39.11
2024-02-24T15:14:38.566Z,40.84
2024-02-24T15:17:06.104Z,41.69
2024-02-24T15:19:37.378Z,38.92
2024-02-24T15:22:05.142Z,38.18
2024-02-24T15:24:32.554Z,39.16
2024-02-24T15:27:00.855Z,37.73
2024-02-24T15:29:28.215Z,38.11
2024-02-24T15:31:55.874Z,38.11
2024-02-24T15:34:25.115Z,40.07
2024-02-24T15:36:53.894Z,39.69
2024-02-24T15:39:21.568Z,38.19
2024-02-24T15:41:50.293Z,38.31
2024-02-24T15:44:18.348Z,39.62
2024-02-24T15:46:47.840Z,39.93
2024-02-24T15:49:15.511Z,38.26
2024-02-24T15:51:44.433Z,39.34
2024-02-24T15:54:12.303Z,40.38
2024-02-24T15:56:40.059Z,41.81
2024-02-24T15:59:07.564Z,41.65
2024-02-24T16:01:35.022Z,41.52
2024-02-24T16:04:02.534Z,40.44
2024-02-24T16:06:32.261Z,39.97
2024-02-24T16:09:00.012Z,40.66
2024-02-24T16:11:27.540Z,41.14
2024-02-24T16:13:57.751Z,42.38
2024-02-24T16:16:27.234Z,40.00
2024-02-24T16:18:54.785Z,41.62
2024-02-24T16:21:22.463Z,40.86
2024-02-24T16:23:49.875Z,42.10
2024-02-24T16:26:17.414Z,40.80
2024-02-24T16:28:44.852Z,41.79
2024-02-24T16:31:12.896Z,40.65
2024-02-24T16:33:40.967Z,41.20
2024-02-24T16:36:09.929Z,41.10
2024-02-24T16:38:40.559Z,43.01
2024-02-24T16:41:08.108Z,42.55
2024-02-24T16:43:36.433Z,42.43
2024-02-24T16:46:04.347Z,43.56
2024-02-24T16:48:33.865Z,40.73
2024-02-24T16:51:01.795Z,41.25
2024-02-24T16:53:29.281Z,41.99
2024-02-24T16:55:56.747Z,43.04
2024-02-24T16:58:24.245Z,43.26
2024-02-24T17:00:51.678Z,41.87
2024-02-24T17:03:20.204Z,41.87
2024-02-24T17:05:47.830Z,44.42
2024-02-24T17:08:16.913Z,43.71
2024-02-24T17:10:47.109Z,42.63
2024-02-24T17:13:18.185Z,43.65
2024-02-24T17:15:45.636Z,42.48
2024-02-24T17:18:20.866Z,43.61
2024-02-24T17:20:51.625Z,43.99
2024-02-24T17:23:19.022Z,43.82
2024-02-24T17:25:46.628Z,45.07
2024-02-24T17:28:17.408Z,44.62
2024-02-24T17:30:45.167Z,44.89
2024-02-24T17:33:12.775Z,44.94
2024-02-24T17:35:40.661Z,45.13
2024-02-24T17:38:09.120Z,45.33
2024-02-24T17:40:36.939Z,43.43
2024-02-24T17:43:04.712Z,43.72
2024-02-24T17:45:32.928Z,44.07
2024-02-24T17:48:00.688Z,44.29
2024-02-24T17:50:28.337Z,43.32
2024-02-24T17:52:56.182Z,42.79
2024-02-24T17:55:23.707Z,44.68
2024-02-24T17:57:51.201Z,43.77
2024-02-24T18:00:19.372Z,44.34
2024-02-24T18:02:47.752Z,44.24
2024-02-24T18:05:17.788Z,44.43
2024-02-24T18:07:50.839Z,44.16
2024-02-24T18:10:18.413Z,44.21
2024-02-24T18:12:45.899Z,44.09
2024-02-24T18:15:15.236Z,44.03
2024-02-24T18:17:42.925Z,44.05
2024-02-24T18:20:11.674Z,43.09
2024-02-24T18:22:43.256Z,43.69
2024-02-24T18:25:12.433Z,43.35
2024-02-24T18:27:39.820Z,43.59
2024-02-24T18:30:08.771Z,44.36
2024-02-24T18:32:38.114Z,45.57
2024-02-24T18:35:06.164Z,43.33
2024-02-24T18:37:36.209Z,43.17
2024-02-24T18:40:08.404Z,43.05
2024-02-24T18:42:37.454Z,44.33
2024-02-24T18:45:06.773Z,44.29
2024-02-24T18:47:34.367Z,44.44
2024-02-24T18:50:01.845Z,43.01
2024-02-24T18:52:30.401Z,43.82
2024-02-24T18:55:00.500Z,43.27
2024-02-24T18:57:29.059Z,44.46
2024-02-24T18:59:57.396Z,44.96
2024-02-24T19:02:24.919Z,43.85
2024-02-24T19:04:52.456Z,43.77
2024-02-24T19:07:19.863Z,44.77
2024-02-24T19:09:47.286Z,43.68
2024-02-24T19:12:14.863Z,43.91
2024-02-24T19:14:49.017Z,43.26
2024-02-24T19:17:22.153Z,43.08
2024-02-24T19:19:50.602Z,42.49
2024-02-24T19:22:18.079Z,44.06
2024-02-24T19:24:45.989Z,43.39
2024-02-24T19:27:13.538Z,42.04
2024-02-24T19:29:45.643Z,41.75
2024-02-24T19:32:13.899Z,42.88
2024-02-24T19:34:41.607Z,42.92
2024-02-24T19:37:10.913Z,43.67
2024-02-24T19:39:38.717Z,43.76
2024-02-24T19:42:06.666Z,43.52
2024-02-24T19:44:36.273Z,42.92
2024-02-24T19:47:05.983Z,43.30
2024-02-24T19:49:33.558Z,42.65
2024-02-24T19:52:02.628Z,43.28
2024-02-24T19:54:30.013Z,42.31
2024-02-24T19:56:57.486Z,42.40
2024-02-24T19:59:25.301Z,43.67
2024-02-24T20:01:53.041Z,43.60
2024-02-24T20:04:20.894Z,43.66
2024-02-24T20:06:48.463Z,43.19
2024-02-24T20:09:16.042Z,45.12
2024-02-24T20:11:43.426Z,44.07
2024-02-24T20:14:12.428Z,45.27
2024-02-24T20:16:39.831Z,45.00
2024-02-24T20:19:08.786Z,42.63
2024-02-24T20:21:37.013Z,44.22
2024-02-24T20:24:04.927Z,44.60
2024-02-24T20:26:32.440Z,45.86
2024-02-24T20:28:59.894Z,44.25
2024-02-24T20:31:27.389Z,44.66
2024-02-24T20:34:00.573Z,47.31
2024-02-24T20:36:34.537Z,47.45
2024-02-24T20:39:03.088Z,46.75
2024-02-24T20:41:31.474Z,45.94
2024-02-24T20:44:01.196Z,45.92
2024-02-24T20:46:29.049Z,46.99
2024-02-24T20:48:56.605Z,47.90
2024-02-24T20:51:24.107Z,47.43
2024-02-24T20:53:51.490Z,46.52
2024-02-24T20:56:18.961Z,48.24
2024-02-24T20:58:46.443Z,48.35
2024-02-24T21:01:14.255Z,47.42
2024-02-24T21:03:42.188Z,50.54
2024-02-24T21:06:09.719Z,50.46
2024-02-24T21:08:39.278Z,51.15
2024-02-24T21:11:08.351Z,49.20
2024-02-24T21:13:36.485Z,48.25
2024-02-24T21:16:04.091Z,49.37
2024-02-24T21:18:32.324Z,50.58
2024-02-24T21:21:00.187Z,51.12
2024-02-24T21:23:27.846Z,50.34
2024-02-24T21:25:55.447Z,49.21
2024-02-24T21:28:22.918Z,50.58
2024-02-24T21:30:51.013Z,51.58
2024-02-24T21:33:18.790Z,53.55
2024-02-24T21:35:47.438Z,52.57
2024-02-24T21:38:14.901Z,52.46
2024-02-24T21:40:42.507Z,50.75
2024-02-24T21:43:10.050Z,51.91
2024-02-24T21:45:37.488Z,52.87
2024-02-24T21:48:05.717Z,52.15
2024-02-24T21:50:38.069Z,51.05
2024-02-24T21:53:05.705Z,50.38
2024-02-24T21:55:33.709Z,49.57
2024-02-24T21:58:01.479Z,50.51
2024-02-24T22:00:28.913Z,53.28
2024-02-24T22:02:56.671Z,53.10
2024-02-24T22:05:24.580Z,52.39
2024-02-24T22:07:52.253Z,52.36
2024-02-24T22:10:29.534Z,51.54
2024-02-24T22:12:59.487Z,51.39
2024-02-24T22:15:27.555Z,51.90
2024-02-24T22:18:00.203Z,49.84
2024-02-24T22:20:28.840Z,50.28
2024-02-24T22:22:59.589Z,49.72
2024-02-24T22:25:27.040Z,50.47
2024-02-24T22:27:59.798Z,48.61
2024-02-24T22:30:28.438Z,51.19
2024-02-24T22:32:57.611Z,49.18
2024-02-24T22:35:25.189Z,49.92
2024-02-24T22:37:52.778Z,48.06
2024-02-24T22:40:20.259Z,48.65
2024-02-24T22:42:47.741Z,48.70
2024-02-24T22:45:15.274Z,49.12
2024-02-24T22:47:48.750Z,48.58
2024-02-24T22:50:17.150Z,49.27
2024-02-24T22:52:44.608Z,49.88
2024-02-24T22:55:12.905Z,49.42
2024-02-24T22:57:43.475Z,50.94
2024-02-24T23:00:15.027Z,52.36
2024-02-24T23:02:43.125Z,52.12
2024-02-24T23:05:16.969Z,53.46
2024-02-24T23:07:44.964Z,51.24
2024-02-24T23:10:12.880Z,51.03
2024-02-24T23:12:40.614Z,50.76
2024-02-24T23:15:11.585Z,50.21
2024-02-24T23:17:41.482Z,49.41
2024-02-24T23:20:16.478Z,50.55
2024-02-24T23:22:43.851Z,50.72
2024-02-24T23:25:11.528Z,49.88
2024-02-24T23:27:39.148Z,50.55
2024-02-24T23:30:08.143Z,54.21
2024-02-24T23:32:39.804Z,58.63
2024-02-24T23:35:07.683Z,57.62
2024-02-24T23:37:35.095Z,59.78
2024-02-24T23:40:02.618Z,53.47
2024-02-24T23:42:30.031Z,56.84
2024-02-24T23:44:57.415Z,55.76
2024-02-24T23:47:24.960Z,55.69
2024-02-24T23:49:52.441Z,55.13
2024-02-24T23:52:19.968Z,57.40
2024-02-24T23:54:47.334Z,55.38
2024-02-24T23:57:14.770Z,58.60
2024-02-24T23:59:42.315Z,59.62
